createdAt,value
2016-09-18T00:00:40.111Z,0
2016-09-18T00:01:40.067Z,0
2016-09-18T00:02:40.098Z,0
2016-09-18T00:03:40.384Z,0
2016-09-18T00:04:39.819Z,0
2016-09-18T00:05:40.079Z,0
2016-09-18T00:06:40.100Z,0
2016-09-18T00:07:39.655Z,0
2016-09-18T00:08:40.281Z,0
2016-09-18T00:09:39.950Z,0
2016-09-18T00:10:39.656Z,0
2016-09-18T00:11:39.605Z,0
2016-09-18T00:12:39.983Z,0
2016-09-18T00:13:39.893Z,0
2016-09-18T00:14:39.889Z,0
2016-09-18T00:15:39.879Z,0
2016-09-18T00:16:39.935Z,0
2016-09-18T00:17:39.836Z,0
2016-09-18T00:18:39.834Z,0
2016-09-18T00:19:40.179Z,0
2016-09-18T00:20:40.136Z,0
2016-09-18T00:21:39.777Z,0
2016-09-18T00:22:39.786Z,0
2016-09-18T00:23:39.769Z,0
2016-09-18T00:24:39.113Z,0
2016-09-18T00:25:40.055Z,0
2016-09-18T00:26:40.053Z,0
2016-09-18T00:27:39.703Z,0
2016-09-18T00:28:39.367Z,0
2016-09-18T00:29:39.676Z,0
2016-09-18T00:30:39.423Z,0
2016-09-18T00:31:39.976Z,0
2016-09-18T00:32:39.959Z,0
2016-09-18T00:33:39.937Z,0
2016-09-18T00:34:39.947Z,0
2016-09-18T00:35:39.588Z,0
2016-09-18T00:36:39.907Z,0
2016-09-18T00:37:39.898Z,0
2016-09-18T00:38:39.883Z,0
2016-09-18T00:39:39.555Z,0
2016-09-18T00:40:39.899Z,0
2016-09-18T00:41:39.257Z,0
2016-09-18T00:42:39.575Z,0
2016-09-18T00:43:39.822Z,0
2016-09-18T00:44:39.786Z,0
2016-09-18T00:45:39.200Z,0
2016-09-18T00:46:39.476Z,0
2016-09-18T00:47:39.526Z,0
2016-09-18T00:48:39.740Z,0
2016-09-18T00:49:39.727Z,0
2016-09-18T00:50:39.846Z,0
2016-09-18T00:51:39.377Z,0
2016-09-18T00:52:39.493Z,0
2016-09-18T00:53:39.349Z,0
2016-09-18T00:54:39.387Z,0
2016-09-18T00:55:39.320Z,0
2016-09-18T00:56:38.986Z,0
2016-09-18T00:57:38.650Z,0
2016-09-18T00:58:39.355Z,0
2016-09-18T00:59:38.970Z,0
2016-09-18T01:00:39.247Z,0
2016-09-18T01:01:39.018Z,0
2016-09-18T01:02:39.246Z,0
2016-09-18T01:03:38.877Z,0
2016-09-18T01:04:38.882Z,0
2016-09-18T01:05:39.186Z,0
2016-09-18T01:06:39.198Z,0
2016-09-18T01:07:39.169Z,0
2016-09-18T01:08:39.476Z,0
2016-09-18T01:09:39.128Z,0
2016-09-18T01:10:39.120Z,0
2016-09-18T01:11:39.437Z,0
2016-09-18T01:12:39.442Z,0
2016-09-18T01:13:39.435Z,0
2016-09-18T01:14:38.754Z,0
2016-09-18T01:15:39.048Z,0
2016-09-18T01:16:38.723Z,0
2016-09-18T01:17:39.017Z,0
2016-09-18T01:18:39.320Z,0
2016-09-18T01:19:39.313Z,0
2016-09-18T01:20:38.661Z,0
2016-09-18T01:21:38.639Z,0
2016-09-18T01:22:38.977Z,0
2016-09-18T01:23:39.300Z,0
2016-09-18T01:24:38.595Z,0
2016-09-18T01:25:38.910Z,0
2016-09-18T01:26:38.899Z,0
2016-09-18T01:27:39.240Z,0
2016-09-18T01:28:38.549Z,0
2016-09-18T01:29:38.850Z,0
2016-09-18T01:30:38.529Z,0
2016-09-18T01:31:38.824Z,0
2016-09-18T01:32:38.809Z,0
2016-09-18T01:33:38.474Z,0
2016-09-18T01:34:39.210Z,0
2016-09-18T01:35:39.086Z,0
2016-09-18T01:36:39.074Z,0
2016-09-18T01:37:38.739Z,0
2016-09-18T01:38:38.442Z,0
2016-09-18T01:39:38.400Z,0
2016-09-18T01:40:38.388Z,0
2016-09-18T01:41:39.008Z,0
2016-09-18T01:42:38.356Z,0
2016-09-18T01:43:38.986Z,0
2016-09-18T01:44:38.659Z,0
2016-09-18T01:45:38.946Z,0
2016-09-18T01:46:38.025Z,0
2016-09-18T01:47:38.305Z,0
2016-09-18T01:48:38.927Z,0
2016-09-18T01:49:38.906Z,0
2016-09-18T01:50:38.890Z,0
2016-09-18T01:51:38.567Z,0
2016-09-18T01:52:38.585Z,0
2016-09-18T01:53:38.521Z,0
2016-09-18T01:54:38.499Z,0
2016-09-18T01:55:38.497Z,0
2016-09-18T01:56:38.797Z,0
2016-09-18T01:57:38.458Z,0
2016-09-18T01:58:38.458Z,0
2016-09-18T01:59:38.766Z,0
2016-09-18T02:00:38.109Z,0
2016-09-18T02:01:37.877Z,0
2016-09-18T02:02:38.110Z,0
2016-09-18T02:03:38.077Z,0
2016-09-18T02:04:38.057Z,0
2016-09-18T02:05:38.096Z,0
2016-09-18T02:06:38.656Z,0
2016-09-18T02:07:38.316Z,0
2016-09-18T02:08:38.635Z,0
2016-09-18T02:09:37.974Z,0
2016-09-18T02:10:38.631Z,0
2016-09-18T02:11:38.270Z,0
2016-09-18T02:12:38.288Z,0
2016-09-18T02:13:38.286Z,0
2016-09-18T02:14:38.236Z,0
2016-09-18T02:15:38.217Z,0
2016-09-18T02:16:38.529Z,0
2016-09-18T02:17:38.199Z,0
2016-09-18T02:18:38.496Z,0
2016-09-18T02:19:37.898Z,0
2016-09-18T02:20:37.837Z,0
2016-09-18T02:21:38.144Z,0
2016-09-18T02:22:38.451Z,0
2016-09-18T02:23:38.419Z,0
2016-09-18T02:24:38.425Z,0
2016-09-18T02:25:38.409Z,0
2016-09-18T02:26:38.125Z,0
2016-09-18T02:27:38.396Z,0
2016-09-18T02:28:38.359Z,0
2016-09-18T02:29:37.393Z,0
2016-09-18T02:30:38.409Z,0
2016-09-18T02:31:38.009Z,0
2016-09-18T02:32:38.046Z,0
2016-09-18T02:33:38.276Z,0
2016-09-18T02:34:38.386Z,0
2016-09-18T02:35:37.627Z,0
2016-09-18T02:36:37.934Z,0
2016-09-18T02:37:37.623Z,0
2016-09-18T02:38:37.895Z,0
2016-09-18T02:39:37.959Z,0
2016-09-18T02:40:38.270Z,0
2016-09-18T02:41:38.199Z,0
2016-09-18T02:42:38.259Z,0
2016-09-18T02:43:37.508Z,0
2016-09-18T02:44:38.144Z,0
2016-09-18T02:45:38.138Z,0
2016-09-18T02:46:37.566Z,0
2016-09-18T02:47:38.105Z,0
2016-09-18T02:48:37.802Z,0
2016-09-18T02:49:37.744Z,0
2016-09-18T02:50:37.431Z,0
2016-09-18T02:51:37.719Z,0
2016-09-18T02:52:37.715Z,0
2016-09-18T02:53:37.707Z,0
2016-09-18T02:54:37.699Z,0
2016-09-18T02:55:37.668Z,0
2016-09-18T02:56:37.338Z,0
2016-09-18T02:57:37.329Z,0
2016-09-18T02:58:37.646Z,0
2016-09-18T02:59:37.286Z,0
2016-09-18T03:00:37.917Z,0
2016-09-18T03:01:37.291Z,0
2016-09-18T03:02:37.555Z,0
2016-09-18T03:03:37.559Z,0
2016-09-18T03:04:37.860Z,0
2016-09-18T03:05:37.536Z,0
2016-09-18T03:06:37.879Z,0
2016-09-18T03:07:37.864Z,0
2016-09-18T03:08:37.814Z,0
2016-09-18T03:09:37.156Z,0
2016-09-18T03:10:37.785Z,0
2016-09-18T03:11:37.769Z,0
2016-09-18T03:12:37.419Z,0
2016-09-18T03:13:37.098Z,0
2016-09-18T03:14:37.735Z,0
2016-09-18T03:15:37.772Z,0
2016-09-18T03:16:37.706Z,0
2016-09-18T03:17:37.721Z,0
2016-09-18T03:18:37.684Z,0
2016-09-18T03:19:37.345Z,0
2016-09-18T03:20:37.643Z,0
2016-09-18T03:21:37.329Z,0
2016-09-18T03:22:37.286Z,0
2016-09-18T03:23:37.603Z,0
2016-09-18T03:24:37.263Z,0
2016-09-18T03:25:37.569Z,0
2016-09-18T03:26:37.557Z,0
2016-09-18T03:27:37.235Z,0
2016-09-18T03:28:37.219Z,0
2016-09-18T03:29:37.206Z,0
2016-09-18T03:30:37.515Z,0
2016-09-18T03:31:36.838Z,0
2016-09-18T03:32:37.484Z,0
2016-09-18T03:33:37.456Z,0
2016-09-18T03:34:37.440Z,0
2016-09-18T03:35:36.806Z,0
2016-09-18T03:36:37.096Z,0
2016-09-18T03:37:37.089Z,0
2016-09-18T03:38:37.068Z,0
2016-09-18T03:39:37.369Z,0
2016-09-18T03:40:37.050Z,0
2016-09-18T03:41:37.353Z,0
2016-09-18T03:42:37.012Z,0
2016-09-18T03:43:37.008Z,0
2016-09-18T03:44:37.315Z,0
2016-09-18T03:45:37.294Z,0
2016-09-18T03:46:37.024Z,0
2016-09-18T03:47:36.628Z,0
2016-09-18T03:48:36.603Z,0
2016-09-18T03:49:36.598Z,0
2016-09-18T03:50:36.895Z,0
2016-09-18T03:51:36.588Z,0
2016-09-18T03:52:36.566Z,0
2016-09-18T03:53:37.172Z,0
2016-09-18T03:54:36.855Z,0
2016-09-18T03:55:37.286Z,0
2016-09-18T03:56:36.510Z,0
2016-09-18T03:57:37.126Z,0
2016-09-18T03:58:36.478Z,0
2016-09-18T03:59:36.458Z,0
2016-09-18T04:00:36.779Z,0
2016-09-18T04:01:36.769Z,0
2016-09-18T04:02:36.418Z,0
2016-09-18T04:03:36.411Z,0
2016-09-18T04:04:36.723Z,0
2016-09-18T04:05:37.015Z,0
2016-09-18T04:06:36.685Z,0
2016-09-18T04:07:36.698Z,0
2016-09-18T04:08:36.977Z,0
2016-09-18T04:09:36.977Z,0
2016-09-18T04:10:36.954Z,0
2016-09-18T04:11:36.986Z,0
2016-09-18T04:12:37.058Z,0
2016-09-18T04:13:36.591Z,0
2016-09-18T04:14:36.574Z,0
2016-09-18T04:15:36.575Z,0
2016-09-18T04:16:36.857Z,0
2016-09-18T04:17:36.528Z,0
2016-09-18T04:18:36.215Z,0
2016-09-18T04:19:36.238Z,0
2016-09-18T04:20:36.496Z,0
2016-09-18T04:21:36.797Z,0
2016-09-18T04:22:36.238Z,0
2016-09-18T04:23:36.787Z,0
2016-09-18T04:24:36.785Z,0
2016-09-18T04:25:36.848Z,0
2016-09-18T04:26:36.739Z,0
2016-09-18T04:27:36.166Z,0
2016-09-18T04:28:36.440Z,0
2016-09-18T04:29:36.382Z,0
2016-09-18T04:30:36.729Z,0
2016-09-18T04:31:36.666Z,0
2016-09-18T04:32:36.378Z,0
2016-09-18T04:33:36.317Z,0
2016-09-18T04:34:36.394Z,0
2016-09-18T04:35:36.615Z,0
2016-09-18T04:36:36.599Z,0
2016-09-18T04:37:35.625Z,0
2016-09-18T04:38:35.976Z,0
2016-09-18T04:39:36.548Z,0
2016-09-18T04:40:36.225Z,0
2016-09-18T04:41:35.993Z,0
2016-09-18T04:42:36.516Z,0
2016-09-18T04:43:36.169Z,0
2016-09-18T04:44:36.169Z,0
2016-09-18T04:45:35.817Z,0
2016-09-18T04:46:35.818Z,0
2016-09-18T04:47:36.438Z,0
2016-09-18T04:48:35.460Z,0
2016-09-18T04:49:36.091Z,0
2016-09-18T04:50:36.395Z,0
2016-09-18T04:51:36.081Z,4
2016-09-18T04:52:36.375Z,4
2016-09-18T04:53:36.369Z,4
2016-09-18T04:54:36.018Z,0
2016-09-18T04:55:35.705Z,0
2016-09-18T04:56:35.348Z,4
2016-09-18T04:57:35.965Z,4
2016-09-18T04:58:36.297Z,4
2016-09-18T04:59:35.645Z,4
2016-09-18T05:00:36.266Z,4
2016-09-18T05:01:35.612Z,8
2016-09-18T05:02:35.982Z,8
2016-09-18T05:03:36.220Z,8
2016-09-18T05:04:36.205Z,12
2016-09-18T05:05:35.902Z,12
2016-09-18T05:06:35.940Z,12
2016-09-18T05:07:35.629Z,16
2016-09-18T05:08:35.836Z,12
2016-09-18T05:09:35.870Z,12
2016-09-18T05:10:35.805Z,16
2016-09-18T05:11:35.829Z,16
2016-09-18T05:12:35.447Z,20
2016-09-18T05:13:36.074Z,20
2016-09-18T05:14:35.782Z,20
2016-09-18T05:15:35.405Z,28
2016-09-18T05:16:35.725Z,28
2016-09-18T05:17:36.012Z,24
2016-09-18T05:18:35.686Z,28
2016-09-18T05:19:36.126Z,32
2016-09-18T05:20:35.396Z,36
2016-09-18T05:21:35.759Z,36
2016-09-18T05:22:35.955Z,36
2016-09-18T05:23:35.639Z,40
2016-09-18T05:24:35.617Z,44
2016-09-18T05:25:35.588Z,44
2016-09-18T05:26:35.593Z,48
2016-09-18T05:27:35.566Z,52
2016-09-18T05:28:35.239Z,52
2016-09-18T05:29:35.563Z,52
2016-09-18T05:30:35.559Z,52
2016-09-18T05:31:35.506Z,56
2016-09-18T05:32:35.497Z,60
2016-09-18T05:33:35.169Z,64
2016-09-18T05:34:35.827Z,68
2016-09-18T05:35:35.450Z,72
2016-09-18T05:36:35.481Z,80
2016-09-18T05:37:35.420Z,88
2016-09-18T05:38:35.414Z,92
2016-09-18T05:39:35.709Z,92
2016-09-18T05:40:35.390Z,88
2016-09-18T05:41:35.357Z,84
2016-09-18T05:42:35.367Z,88
2016-09-18T05:43:35.340Z,88
2016-09-18T05:44:35.313Z,88
2016-09-18T05:45:34.989Z,96
2016-09-18T05:46:35.646Z,96
2016-09-18T05:47:35.276Z,100
2016-09-18T05:48:35.275Z,96
2016-09-18T05:49:34.918Z,96
2016-09-18T05:50:34.925Z,96
2016-09-18T05:51:35.222Z,100
2016-09-18T05:52:35.550Z,104
2016-09-18T05:53:35.504Z,108
2016-09-18T05:54:35.187Z,112
2016-09-18T05:55:35.579Z,112
2016-09-18T05:56:35.148Z,112
2016-09-18T05:57:35.450Z,116
2016-09-18T05:58:35.116Z,116
2016-09-18T05:59:35.108Z,116
2016-09-18T06:00:35.417Z,120
2016-09-18T06:01:35.075Z,128
2016-09-18T06:02:35.381Z,136
2016-09-18T06:03:35.057Z,140
2016-09-18T06:04:35.371Z,156
2016-09-18T06:05:35.338Z,172
2016-09-18T06:06:35.014Z,180
2016-09-18T06:07:35.370Z,192
2016-09-18T06:08:34.987Z,204
2016-09-18T06:09:35.280Z,208
2016-09-18T06:10:34.314Z,212
2016-09-18T06:11:34.613Z,224
2016-09-18T06:12:35.246Z,228
2016-09-18T06:13:34.906Z,240
2016-09-18T06:14:35.216Z,244
2016-09-18T06:15:35.197Z,252
2016-09-18T06:16:35.180Z,260
2016-09-18T06:17:35.168Z,264
2016-09-18T06:18:34.832Z,256
2016-09-18T06:19:34.817Z,260
2016-09-18T06:20:34.583Z,252
2016-09-18T06:21:35.119Z,244
2016-09-18T06:22:34.757Z,240
2016-09-18T06:23:34.438Z,232
2016-09-18T06:24:34.754Z,220
2016-09-18T06:25:34.458Z,224
2016-09-18T06:26:35.026Z,236
2016-09-18T06:27:35.016Z,236
2016-09-18T06:28:34.695Z,220
2016-09-18T06:29:34.707Z,224
2016-09-18T06:30:34.966Z,224
2016-09-18T06:31:34.624Z,236
2016-09-18T06:32:34.655Z,252
2016-09-18T06:33:34.644Z,272
2016-09-18T06:34:34.906Z,296
2016-09-18T06:35:34.578Z,352
2016-09-18T06:36:34.233Z,464
2016-09-18T06:37:34.869Z,564
2016-09-18T06:38:34.530Z,568
2016-09-18T06:39:34.522Z,596
2016-09-18T06:40:34.186Z,564
2016-09-18T06:41:34.230Z,580
2016-09-18T06:42:34.156Z,584
2016-09-18T06:43:34.141Z,636
2016-09-18T06:44:34.440Z,652
2016-09-18T06:45:34.749Z,668
2016-09-18T06:46:34.156Z,652
2016-09-18T06:47:34.406Z,632
2016-09-18T06:48:34.698Z,640
2016-09-18T06:49:34.706Z,612
2016-09-18T06:50:34.048Z,648
2016-09-18T06:51:34.342Z,712
2016-09-18T06:52:34.642Z,740
2016-09-18T06:53:34.006Z,804
2016-09-18T06:54:34.315Z,844
2016-09-18T06:55:34.605Z,816
2016-09-18T06:56:34.616Z,776
2016-09-18T06:57:34.581Z,768
2016-09-18T06:58:34.243Z,676
2016-09-18T06:59:33.907Z,600
2016-09-18T07:00:34.539Z,552
2016-09-18T07:01:33.876Z,620
2016-09-18T07:02:34.196Z,712
2016-09-18T07:03:33.877Z,796
2016-09-18T07:04:34.481Z,876
2016-09-18T07:05:34.470Z,900
2016-09-18T07:06:33.507Z,932
2016-09-18T07:07:34.105Z,976
2016-09-18T07:08:34.118Z,1072
2016-09-18T07:09:33.758Z,1132
2016-09-18T07:10:34.076Z,1160
2016-09-18T07:11:33.417Z,1136
2016-09-18T07:12:33.722Z,1156
2016-09-18T07:13:33.706Z,1400
2016-09-18T07:14:33.996Z,1416
2016-09-18T07:15:34.310Z,1556
2016-09-18T07:16:33.687Z,1636
2016-09-18T07:17:34.124Z,1680
2016-09-18T07:18:33.636Z,1500
2016-09-18T07:19:33.617Z,1416
2016-09-18T07:20:33.918Z,1532
2016-09-18T07:21:33.939Z,1640
2016-09-18T07:22:34.226Z,1488
2016-09-18T07:23:34.001Z,1348
2016-09-18T07:24:33.243Z,1136
2016-09-18T07:25:33.856Z,1012
2016-09-18T07:26:34.156Z,980
2016-09-18T07:27:33.816Z,944
2016-09-18T07:28:33.797Z,840
2016-09-18T07:29:33.796Z,756
2016-09-18T07:30:33.458Z,636
2016-09-18T07:31:34.086Z,584
2016-09-18T07:32:33.107Z,588
2016-09-18T07:33:33.769Z,760
2016-09-18T07:34:33.401Z,840
2016-09-18T07:35:33.716Z,840
2016-09-18T07:36:33.373Z,976
2016-09-18T07:37:33.055Z,1236
2016-09-18T07:38:33.655Z,1304
2016-09-18T07:39:33.687Z,1328
2016-09-18T07:40:33.645Z,1292
2016-09-18T07:41:33.636Z,1360
2016-09-18T07:42:33.615Z,1576
2016-09-18T07:43:33.586Z,1580
2016-09-18T07:44:33.888Z,1356
2016-09-18T07:45:33.552Z,1220
2016-09-18T07:46:33.226Z,1236
2016-09-18T07:47:33.209Z,1208
2016-09-18T07:48:33.526Z,1168
2016-09-18T07:49:33.196Z,1356
2016-09-18T07:50:33.485Z,1436
2016-09-18T07:51:33.790Z,1336
2016-09-18T07:52:33.471Z,1360
2016-09-18T07:53:33.447Z,1416
2016-09-18T07:54:33.746Z,1404
2016-09-18T07:55:33.092Z,1424
2016-09-18T07:56:33.808Z,1376
2016-09-18T07:57:33.068Z,1368
2016-09-18T07:58:33.706Z,1300
2016-09-18T07:59:33.363Z,1404
2016-09-18T08:00:33.018Z,1624
2016-09-18T08:01:33.667Z,1580
2016-09-18T08:02:33.641Z,1236
2016-09-18T08:03:33.626Z,1240
2016-09-18T08:04:33.596Z,1152
2016-09-18T08:05:32.946Z,1096
2016-09-18T08:06:33.259Z,1052
2016-09-18T08:07:33.584Z,1316
2016-09-18T08:08:33.555Z,1436
2016-09-18T08:09:32.892Z,1596
2016-09-18T08:10:33.506Z,1648
2016-09-18T08:11:32.853Z,1700
2016-09-18T08:12:32.877Z,1924
2016-09-18T08:13:32.836Z,2388
2016-09-18T08:14:32.815Z,2748
2016-09-18T08:15:33.437Z,4304
2016-09-18T08:16:33.107Z,5316
2016-09-18T08:17:33.427Z,4600
2016-09-18T08:18:33.406Z,3808
2016-09-18T08:19:32.783Z,3544
2016-09-18T08:20:33.376Z,3236
2016-09-18T08:21:33.089Z,3196
2016-09-18T08:22:32.385Z,3988
2016-09-18T08:23:32.688Z,4440
2016-09-18T08:24:32.992Z,5036
2016-09-18T08:25:33.299Z,4772
2016-09-18T08:26:32.987Z,6576
2016-09-18T08:27:33.019Z,12188
2016-09-18T08:28:33.269Z,5656
2016-09-18T08:29:32.614Z,8188
2016-09-18T08:30:33.210Z,8684
2016-09-18T08:31:32.875Z,28128
2016-09-18T08:32:33.197Z,36256
2016-09-18T08:33:33.185Z,80384
2016-09-18T08:34:32.867Z,71936
2016-09-18T08:35:32.189Z,20576
2016-09-18T08:36:32.517Z,12216
2016-09-18T08:37:32.844Z,56736
2016-09-18T08:38:33.126Z,49568
2016-09-18T08:39:32.790Z,46560
2016-09-18T08:40:33.104Z,22464
2016-09-18T08:41:33.090Z,16000
2016-09-18T08:42:32.762Z,14508
2016-09-18T08:43:32.751Z,9700
2016-09-18T08:44:32.771Z,7008
2016-09-18T08:45:32.711Z,6880
2016-09-18T08:46:32.407Z,8908
2016-09-18T08:47:32.063Z,8972
2016-09-18T08:48:33.034Z,11264
2016-09-18T08:49:32.376Z,10428
2016-09-18T08:50:32.672Z,11084
2016-09-18T08:51:32.666Z,12032
2016-09-18T08:52:32.997Z,12288
2016-09-18T08:53:32.347Z,21760
2016-09-18T08:54:32.616Z,53856
2016-09-18T08:55:32.634Z,22016
2016-09-18T08:56:32.619Z,38240
2016-09-18T08:57:32.723Z,54144
2016-09-18T08:58:32.599Z,48288
2016-09-18T08:59:33.006Z,12528
2016-09-18T09:00:31.933Z,9292
2016-09-18T09:01:32.357Z,13156
2016-09-18T09:02:32.559Z,77312
2016-09-18T09:03:32.575Z,16480
2016-09-18T09:04:32.856Z,20704
2016-09-18T09:05:32.541Z,44896
2016-09-18T09:06:32.526Z,39008
2016-09-18T09:07:32.237Z,23360
2016-09-18T09:08:32.502Z,57632
2016-09-18T09:09:32.508Z,16512
2016-09-18T09:10:32.170Z,11896
2016-09-18T09:11:32.524Z,24064
2016-09-18T09:12:32.782Z,33280
2016-09-18T09:13:32.503Z,8088
2016-09-18T09:14:32.126Z,8348
2016-09-18T09:15:32.114Z,10792
2016-09-18T09:16:32.423Z,20928
2016-09-18T09:17:32.415Z,21792
2016-09-18T09:18:32.433Z,12800
2016-09-18T09:19:32.396Z,25024
2016-09-18T09:20:32.100Z,19936
2016-09-18T09:21:32.062Z,39072
2016-09-18T09:22:32.465Z,21600
2016-09-18T09:23:32.681Z,69632
2016-09-18T09:24:31.728Z,72288
2016-09-18T09:25:32.691Z,42144
2016-09-18T09:26:32.328Z,7744
2016-09-18T09:27:32.392Z,9048
2016-09-18T09:28:32.345Z,16512
2016-09-18T09:29:32.643Z,14772
2016-09-18T09:30:32.014Z,20736
2016-09-18T09:31:32.296Z,8496
2016-09-18T09:32:31.972Z,7036
2016-09-18T09:33:31.973Z,7712
2016-09-18T09:34:31.997Z,9396
2016-09-18T09:35:32.296Z,9404
2016-09-18T09:36:31.936Z,8440
2016-09-18T09:37:32.686Z,8096
2016-09-18T09:38:32.549Z,6692
2016-09-18T09:39:32.617Z,6436
2016-09-18T09:40:31.883Z,6744
2016-09-18T09:41:32.206Z,6136
2016-09-18T09:42:32.013Z,5404
2016-09-18T09:43:31.867Z,6208
2016-09-18T09:44:32.520Z,5536
2016-09-18T09:45:32.494Z,5168
2016-09-18T09:46:32.163Z,5604
2016-09-18T09:47:32.505Z,6364
2016-09-18T09:48:31.866Z,7008
2016-09-18T09:49:32.139Z,7412
2016-09-18T09:50:32.140Z,7524
2016-09-18T09:51:31.788Z,8732
2016-09-18T09:52:32.115Z,11248
2016-09-18T09:53:32.086Z,14368
2016-09-18T09:54:32.396Z,12852
2016-09-18T09:55:31.800Z,12912
2016-09-18T09:56:31.784Z,12552
2016-09-18T09:57:32.373Z,16568
2016-09-18T09:58:31.403Z,29888
2016-09-18T09:59:31.723Z,51552
2016-09-18T10:00:32.390Z,56320
2016-09-18T10:01:32.409Z,53472
2016-09-18T10:02:32.002Z,33984
2016-09-18T10:03:32.026Z,19296
2016-09-18T10:04:32.305Z,53280
2016-09-18T10:05:32.279Z,18272
2016-09-18T10:06:32.287Z,13096
2016-09-18T10:07:31.999Z,13552
2016-09-18T10:08:32.087Z,14956
2016-09-18T10:09:31.610Z,48320
2016-09-18T10:10:32.255Z,46528
2016-09-18T10:11:31.928Z,31680
2016-09-18T10:12:31.916Z,31520
2016-09-18T10:13:32.221Z,13032
2016-09-18T10:14:31.935Z,21856
2016-09-18T10:15:31.251Z,18816
2016-09-18T10:16:31.881Z,40736
2016-09-18T10:17:31.867Z,44320
2016-09-18T10:18:31.225Z,44896
2016-09-18T10:19:32.194Z,34048
2016-09-18T10:20:32.152Z,19776
2016-09-18T10:21:31.847Z,17664
2016-09-18T10:22:31.842Z,15744
2016-09-18T10:23:32.243Z,15684
2016-09-18T10:24:31.487Z,15844
2016-09-18T10:25:31.811Z,14604
2016-09-18T10:26:31.485Z,17344
2016-09-18T10:27:31.475Z,27296
2016-09-18T10:28:31.920Z,15464
2016-09-18T10:29:31.789Z,14368
2016-09-18T10:30:32.106Z,14660
2016-09-18T10:31:32.080Z,14852
2016-09-18T10:32:31.768Z,15012
2016-09-18T10:33:31.734Z,15356
2016-09-18T10:34:31.193Z,15556
2016-09-18T10:35:32.035Z,15780
2016-09-18T10:36:31.716Z,17216
2016-09-18T10:37:31.720Z,18784
2016-09-18T10:38:31.705Z,16320
2016-09-18T10:39:31.389Z,13628
2016-09-18T10:40:32.011Z,14196
2016-09-18T10:41:31.689Z,14460
2016-09-18T10:42:32.011Z,25248
2016-09-18T10:43:31.662Z,10144
2016-09-18T10:44:31.689Z,9080
2016-09-18T10:45:31.647Z,9176
2016-09-18T10:46:31.989Z,9852
2016-09-18T10:47:31.647Z,10428
2016-09-18T10:48:31.963Z,11068
2016-09-18T10:49:31.973Z,10920
2016-09-18T10:50:31.943Z,10448
2016-09-18T10:51:31.629Z,18272
2016-09-18T10:52:31.284Z,12668
2016-09-18T10:53:31.728Z,17856
2016-09-18T10:54:30.944Z,22048
2016-09-18T10:55:31.310Z,18240
2016-09-18T10:56:31.566Z,13304
2016-09-18T10:57:31.264Z,12648
2016-09-18T10:58:32.118Z,12300
2016-09-18T10:59:31.335Z,12396
2016-09-18T11:00:31.247Z,13064
2016-09-18T11:01:31.550Z,8952
2016-09-18T11:02:31.197Z,9744
2016-09-18T11:03:31.856Z,12708
2016-09-18T11:04:31.188Z,12368
2016-09-18T11:05:31.536Z,12688
2016-09-18T11:06:31.794Z,12352
2016-09-18T11:07:31.485Z,13272
2016-09-18T11:08:31.559Z,13264
2016-09-18T11:09:31.495Z,8904
2016-09-18T11:10:31.488Z,11512
2016-09-18T11:11:31.643Z,13796
2016-09-18T11:12:31.055Z,13044
2016-09-18T11:13:32.001Z,9332
2016-09-18T11:14:31.636Z,9288
2016-09-18T11:15:32.185Z,9356
2016-09-18T11:16:31.813Z,8096
2016-09-18T11:17:31.295Z,11260
2016-09-18T11:18:31.448Z,5452
2016-09-18T11:19:31.888Z,4844
2016-09-18T11:20:31.677Z,5064
2016-09-18T11:21:32.055Z,5324
2016-09-18T11:22:31.710Z,6348
2016-09-18T11:23:31.044Z,4544
2016-09-18T11:24:31.794Z,5000
2016-09-18T11:25:31.740Z,5324
2016-09-18T11:26:31.907Z,5888
2016-09-18T11:27:31.953Z,10088
2016-09-18T11:28:31.534Z,10488
2016-09-18T11:29:31.734Z,11940
2016-09-18T11:30:30.695Z,12088
2016-09-18T11:31:31.325Z,12600
2016-09-18T11:32:31.338Z,13276
2016-09-18T11:33:31.633Z,13968
2016-09-18T11:34:31.645Z,13680
2016-09-18T11:35:31.331Z,10652
2016-09-18T11:36:31.574Z,11656
2016-09-18T11:37:31.560Z,9176
2016-09-18T11:38:31.545Z,9388
2016-09-18T11:39:31.525Z,8120
2016-09-18T11:40:31.523Z,7616
2016-09-18T11:41:31.192Z,7784
2016-09-18T11:42:31.495Z,7832
2016-09-18T11:43:31.165Z,8480
2016-09-18T11:44:30.516Z,8300
2016-09-18T11:45:30.824Z,6892
2016-09-18T11:46:30.836Z,6752
2016-09-18T11:47:31.236Z,6644
2016-09-18T11:48:31.142Z,8240
2016-09-18T11:49:31.127Z,6864
2016-09-18T11:50:30.795Z,10140
2016-09-18T11:51:31.424Z,9172
2016-09-18T11:52:30.763Z,11352
2016-09-18T11:53:30.776Z,11560
2016-09-18T11:54:30.754Z,11328
2016-09-18T11:55:31.054Z,11296
2016-09-18T11:56:31.063Z,11284
2016-09-18T11:57:31.064Z,11352
2016-09-18T11:58:30.725Z,11248
2016-09-18T11:59:30.709Z,11172
2016-09-18T12:00:30.717Z,11188
2016-09-18T12:01:31.028Z,11196
2016-09-18T12:02:30.683Z,11168
2016-09-18T12:03:31.001Z,11264
2016-09-18T12:04:30.352Z,11284
2016-09-18T12:05:30.967Z,11276
2016-09-18T12:06:30.976Z,6672
2016-09-18T12:07:31.305Z,6340
2016-09-18T12:08:30.975Z,6876
2016-09-18T12:09:30.972Z,10016
2016-09-18T12:10:30.624Z,6624
2016-09-18T12:11:30.944Z,5792
2016-09-18T12:12:30.933Z,5392
2016-09-18T12:13:30.915Z,5108
2016-09-18T12:14:30.904Z,5012
2016-09-18T12:15:30.900Z,4940
2016-09-18T12:16:31.220Z,4656
2016-09-18T12:17:30.889Z,4532
2016-09-18T12:18:31.207Z,4428
2016-09-18T12:19:30.869Z,4284
2016-09-18T12:20:30.872Z,4448
2016-09-18T12:21:31.179Z,5748
2016-09-18T12:22:30.524Z,10856
2016-09-18T12:23:30.517Z,8328
2016-09-18T12:24:30.816Z,7252
2016-09-18T12:25:30.810Z,11272
2016-09-18T12:26:30.551Z,11380
2016-09-18T12:27:31.135Z,11492
2016-09-18T12:28:30.150Z,11412
2016-09-18T12:29:31.112Z,11240
2016-09-18T12:30:30.134Z,11240
2016-09-18T12:31:31.083Z,11156
2016-09-18T12:32:30.440Z,11228
2016-09-18T12:33:30.131Z,11320
2016-09-18T12:34:31.073Z,11476
2016-09-18T12:35:30.752Z,11512
2016-09-18T12:36:30.734Z,11320
2016-09-18T12:37:31.097Z,10468
2016-09-18T12:38:31.043Z,5432
2016-09-18T12:39:30.716Z,6148
2016-09-18T12:40:30.703Z,8476
2016-09-18T12:41:30.703Z,5556
2016-09-18T12:42:30.695Z,11096
2016-09-18T12:43:30.682Z,9004
2016-09-18T12:44:30.444Z,6136
2016-09-18T12:45:30.634Z,11952
2016-09-18T12:46:30.382Z,7828
2016-09-18T12:47:30.646Z,9392
2016-09-18T12:48:30.642Z,4948
2016-09-18T12:49:30.319Z,4452
2016-09-18T12:50:30.954Z,4056
2016-09-18T12:51:30.621Z,3796
2016-09-18T12:52:30.622Z,3540
2016-09-18T12:53:30.592Z,3380
2016-09-18T12:54:30.272Z,3220
2016-09-18T12:55:30.910Z,3092
2016-09-18T12:56:30.271Z,3244
2016-09-18T12:57:30.573Z,3596
2016-09-18T12:58:30.232Z,3912
2016-09-18T12:59:30.544Z,4300
2016-09-18T13:00:30.554Z,10476
2016-09-18T13:01:30.543Z,11024
2016-09-18T13:02:30.835Z,11064
2016-09-18T13:03:30.816Z,11276
2016-09-18T13:04:30.496Z,11540
2016-09-18T13:05:30.805Z,11752
2016-09-18T13:06:30.485Z,11848
2016-09-18T13:07:30.803Z,11808
2016-09-18T13:08:30.760Z,11748
2016-09-18T13:09:30.464Z,11492
2016-09-18T13:10:29.796Z,11488
2016-09-18T13:11:29.865Z,10092
2016-09-18T13:12:30.443Z,6000
2016-09-18T13:13:30.751Z,5652
2016-09-18T13:14:30.732Z,5604
2016-09-18T13:15:30.394Z,7720
2016-09-18T13:16:30.072Z,10728
2016-09-18T13:17:30.165Z,6432
2016-09-18T13:18:30.479Z,4940
2016-09-18T13:19:30.383Z,4604
2016-09-18T13:20:30.692Z,4324
2016-09-18T13:21:30.344Z,3972
2016-09-18T13:22:30.683Z,3700
2016-09-18T13:23:30.689Z,3492
2016-09-18T13:24:30.680Z,3460
2016-09-18T13:25:30.341Z,3652
2016-09-18T13:26:30.321Z,4956
2016-09-18T13:27:30.636Z,8972
2016-09-18T13:28:29.973Z,9388
2016-09-18T13:29:30.650Z,10008
2016-09-18T13:30:30.590Z,10080
2016-09-18T13:31:30.273Z,10168
2016-09-18T13:32:30.263Z,10260
2016-09-18T13:33:30.321Z,10276
2016-09-18T13:34:30.578Z,8680
2016-09-18T13:35:30.648Z,3940
2016-09-18T13:36:30.213Z,6204
2016-09-18T13:37:30.282Z,3956
2016-09-18T13:38:30.214Z,4040
2016-09-18T13:39:30.204Z,4216
2016-09-18T13:40:30.177Z,4424
2016-09-18T13:41:29.540Z,4616
2016-09-18T13:42:30.494Z,4860
2016-09-18T13:43:30.494Z,11672
2016-09-18T13:44:30.259Z,11496
2016-09-18T13:45:30.470Z,10836
2016-09-18T13:46:30.139Z,11084
2016-09-18T13:47:29.866Z,10460
2016-09-18T13:48:29.799Z,10860